Time;durP1;ratioP1;P1;durP2;ratioP2;P2;SDS_P1;SDS_P2;PMS_P1;PMS_P2;Temp;Humidity;BMP_temperature;BMP_pressure;BME280_temperature;BME280_humidity;BME280_pressure;Samples;Min_cycle;Max_cycle;Signal;HPM_P1;HPM_P2
2023/09/04 00:01:38;;;;;;;7.25;6.35;;;13.30;99.90;;;;;;5073454;28;20641;-77
2023/09/04 00:04:05;;;;;;;7.38;5.88;;;13.40;99.90;;;;;;5073370;28;20234;-77
2023/09/04 00:06:31;;;;;;;7.13;5.50;;;13.40;99.90;;;;;;5073260;28;20201;-77
2023/09/04 00:08:59;;;;;;;8.38;6.22;;;13.40;99.90;;;;;;5073102;28;20213;-77
2023/09/04 00:11:26;;;;;;;10.27;6.53;;;13.50;99.90;;;;;;5073282;28;20176;-77
2023/09/04 00:13:52;;;;;;;10.35;6.30;;;13.50;99.90;;;;;;5074417;28;20240;-77
2023/09/04 00:16:18;;;;;;;6.88;6.15;;;13.60;99.90;;;;;;5073532;28;20169;-78
2023/09/04 00:18:44;;;;;;;10.73;5.97;;;13.60;99.90;;;;;;5072224;28;20277;-79
2023/09/04 00:21:10;;;;;;;6.85;5.65;;;13.50;99.90;;;;;;5073251;28;20182;-79
2023/09/04 00:23:35;;;;;;;7.28;5.72;;;13.40;99.90;;;;;;5074217;28;20194;-78
2023/09/04 00:26:01;;;;;;;7.55;6.28;;;13.40;99.90;;;;;;5073341;28;20236;-79
2023/09/04 00:28:27;;;;;;;7.40;6.03;;;13.30;99.90;;;;;;5073031;28;20209;-78
2023/09/04 00:30:53;;;;;;;8.45;6.43;;;13.20;99.90;;;;;;5073229;28;20181;-79
2023/09/04 00:33:19;;;;;;;8.43;5.78;;;13.20;99.90;;;;;;5074491;28;20194;-79
2023/09/04 00:35:45;;;;;;;10.45;6.35;;;13.20;99.90;;;;;;5074769;28;20597;-79
2023/09/04 00:38:10;;;;;;;7.90;6.28;;;13.10;99.90;;;;;;5072917;28;20215;-78
2023/09/04 00:40:36;;;;;;;7.30;5.85;;;13.10;99.90;;;;;;5072988;28;20178;-79
2023/09/04 00:43:02;;;;;;;7.47;5.97;;;13.10;99.90;;;;;;5074177;28;20193;-79
2023/09/04 00:45:29;;;;;;;7.20;5.85;;;13.10;99.90;;;;;;5074427;28;20201;-79
2023/09/04 00:47:54;;;;;;;6.05;5.43;;;13.10;99.90;;;;;;5073142;28;20202;-79
2023/09/04 00:50:25;;;;;;;6.80;6.00;;;13.00;99.90;;;;;;5073263;28;20185;-80
2023/09/04 00:52:56;;;;;;;9.52;5.70;;;13.00;99.90;;;;;;5072776;28;20206;-78
2023/09/04 00:55:23;;;;;;;8.48;6.32;;;12.90;99.90;;;;;;5073214;28;20227;-80
2023/09/04 00:57:49;;;;;;;8.48;6.15;;;12.90;99.90;;;;;;5073987;28;20650;-80
2023/09/04 01:00:19;;;;;;;9.63;6.78;;;12.90;99.90;;;;;;5073373;28;20180;-80
2023/09/04 01:02:45;;;;;;;10.38;6.63;;;12.90;99.90;;;;;;5075063;28;20208;-79
2023/09/04 01:05:11;;;;;;;8.82;5.88;;;12.90;99.90;;;;;;5076441;28;20706;-80
2023/09/04 01:07:40;;;;;;;9.93;6.00;;;12.90;99.90;;;;;;5074502;28;20189;-78
2023/09/04 01:10:08;;;;;;;8.85;6.53;;;12.90;99.90;;;;;;5072469;28;20549;-77
2023/09/04 01:13:01;;;;;;;6.50;5.78;;;12.80;99.90;;;;;;5073639;28;20183;-77
2023/09/04 01:15:27;;;;;;;8.55;6.30;;;12.80;99.90;;;;;;5073599;28;20162;-77
2023/09/04 01:17:53;;;;;;;10.02;6.78;;;12.80;99.90;;;;;;5073533;28;20177;-77
2023/09/04 01:20:27;;;;;;;8.20;6.50;;;12.80;99.90;;;;;;5072463;28;20177;-77
2023/09/04 01:22:54;;;;;;;9.13;7.18;;;12.70;99.90;;;;;;5071938;28;20193;-77
2023/09/04 01:25:21;;;;;;;9.23;7.43;;;12.70;99.90;;;;;;5073627;28;20518;-77
2023/09/04 01:28:10;;;;;;;9.40;6.55;;;12.80;99.90;;;;;;5072251;28;20217;-77
2023/09/04 01:30:59;;;;;;;10.68;6.55;;;12.90;99.90;;;;;;5075876;28;20239;-77
2023/09/04 01:33:31;;;;;;;8.07;7.03;;;12.80;99.90;;;;;;5077484;28;20243;-77
2023/09/04 01:36:04;;;;;;;7.45;6.50;;;12.80;99.90;;;;;;5077796;28;20154;-77
2023/09/04 01:38:32;;;;;;;10.77;7.03;;;12.80;99.90;;;;;;5077226;28;20158;-77
2023/09/04 01:40:58;;;;;;;8.30;6.45;;;12.70;99.90;;;;;;5077859;28;20173;-76
2023/09/04 01:43:24;;;;;;;8.63;6.97;;;12.70;99.90;;;;;;5076222;28;20197;-77
2023/09/04 01:45:50;;;;;;;9.45;6.50;;;12.50;99.90;;;;;;5076147;28;20205;-77
2023/09/04 01:48:15;;;;;;;8.20;6.50;;;12.50;99.90;;;;;;5075861;28;20284;-77
2023/09/04 01:50:41;;;;;;;9.63;6.35;;;12.40;99.90;;;;;;5076105;28;20251;-77
2023/09/04 01:53:07;;;;;;;12.30;6.95;;;12.40;99.90;;;;;;5075680;28;20197;-77
2023/09/04 01:55:33;;;;;;;7.75;6.40;;;12.40;99.90;;;;;;5075998;28;20284;-77
2023/09/04 01:57:58;;;;;;;8.07;6.90;;;12.40;99.90;;;;;;5075859;28;20201;-77
2023/09/04 02:00:24;;;;;;;8.07;6.72;;;12.40;99.90;;;;;;5075778;28;20258;-77
2023/09/04 02:02:50;;;;;;;9.40;6.40;;;12.40;99.90;;;;;;5075652;28;20202;-77
2023/09/04 02:05:15;;;;;;;7.15;6.40;;;12.50;99.90;;;;;;5077190;28;20633;-77
2023/09/04 02:07:41;;;;;;;7.82;6.40;;;12.50;99.90;;;;;;5075496;28;20189;-77
2023/09/04 02:10:07;;;;;;;11.23;6.32;;;12.30;99.90;;;;;;5076560;28;20640;-77
2023/09/04 02:12:33;;;;;;;7.07;6.00;;;12.30;99.90;;;;;;5075338;28;20194;-77
2023/09/04 02:14:59;;;;;;;8.50;6.35;;;12.20;99.90;;;;;;5077196;28;20243;-77
2023/09/04 02:17:24;;;;;;;9.32;6.22;;;12.20;99.90;;;;;;5075434;28;20526;-76
2023/09/04 02:19:50;;;;;;;8.60;5.70;;;12.20;99.90;;;;;;5077031;28;20303;-77
2023/09/04 02:22:16;;;;;;;6.90;6.13;;;12.10;99.90;;;;;;5075494;28;20188;-77
2023/09/04 02:24:44;;;;;;;6.85;5.90;;;12.10;99.90;;;;;;5074991;28;20177;-77
2023/09/04 02:27:10;;;;;;;7.05;6.35;;;12.10;99.90;;;;;;5075108;28;20541;-77
2023/09/04 02:29:35;;;;;;;8.85;6.32;;;12.20;99.90;;;;;;5075292;28;20251;-77
2023/09/04 02:32:01;;;;;;;6.15;5.55;;;12.10;99.90;;;;;;5075159;28;20174;-77
2023/09/04 02:34:27;;;;;;;6.88;5.90;;;12.10;99.90;;;;;;5076127;28;20189;-77
2023/09/04 02:36:53;;;;;;;9.88;6.43;;;12.10;99.90;;;;;;5076316;28;20656;-77
2023/09/04 02:39:19;;;;;;;7.65;6.10;;;12.10;99.90;;;;;;5075030;28;20193;-77
2023/09/04 02:41:44;;;;;;;9.70;6.85;;;12.10;99.90;;;;;;5073757;28;20264;-77
2023/09/04 02:44:10;;;;;;;7.55;6.22;;;12.10;99.90;;;;;;5076095;28;20280;-77
2023/09/04 02:46:36;;;;;;;8.60;6.43;;;12.10;99.90;;;;;;5076202;28;20178;-77
2023/09/04 02:49:02;;;;;;;8.30;6.15;;;12.10;99.90;;;;;;5074795;28;20296;-77
2023/09/04 02:51:27;;;;;;;8.32;6.75;;;12.00;99.90;;;;;;5074776;28;20224;-77
2023/09/04 02:53:53;;;;;;;9.02;7.07;;;12.00;99.90;;;;;;5074647;28;20611;-77
2023/09/04 02:56:19;;;;;;;7.22;5.78;;;12.00;99.90;;;;;;5074686;28;20174;-77
2023/09/04 02:58:45;;;;;;;9.55;6.70;;;11.90;99.90;;;;;;5074841;28;20555;-77
2023/09/04 03:01:15;;;;;;;9.73;6.68;;;12.00;99.90;;;;;;5074621;28;20185;-77
2023/09/04 03:03:41;;;;;;;8.93;6.80;;;12.00;99.90;;;;;;5074552;28;20198;-77
2023/09/04 03:06:10;;;;;;;8.55;6.43;;;11.90;99.90;;;;;;5075864;28;20189;-77
2023/09/04 03:08:39;;;;;;;10.85;6.75;;;11.90;99.90;;;;;;5074062;28;20781;-77
2023/09/04 03:11:13;;;;;;;9.50;6.97;;;11.80;99.90;;;;;;5075708;28;20656;-77
2023/09/04 03:13:39;;;;;;;12.20;6.90;;;11.70;99.90;;;;;;5074350;28;20209;-77
2023/09/04 03:16:08;;;;;;;8.50;6.40;;;11.70;99.90;;;;;;5074488;28;20181;-77
2023/09/04 03:18:34;;;;;;;9.50;6.57;;;11.70;99.90;;;;;;5074341;28;20265;-77
2023/09/04 03:21:04;;;;;;;9.68;6.63;;;11.60;99.90;;;;;;5075499;28;20227;-77
2023/09/04 03:23:31;;;;;;;7.82;6.32;;;11.60;99.90;;;;;;5073793;28;20255;-77
2023/09/04 03:25:56;;;;;;;8.07;6.68;;;11.60;99.90;;;;;;5073333;28;20186;-77
2023/09/04 03:28:22;;;;;;;7.05;5.63;;;11.60;99.90;;;;;;5074005;28;20267;-77
2023/09/04 03:30:48;;;;;;;6.10;5.50;;;11.50;99.90;;;;;;5075316;28;20181;-77
2023/09/04 03:33:14;;;;;;;7.60;5.78;;;11.40;99.90;;;;;;5073834;28;20190;-77
2023/09/04 03:35:40;;;;;;;8.32;5.72;;;11.40;99.90;;;;;;5075140;28;20224;-77
2023/09/04 03:38:05;;;;;;;7.88;6.00;;;11.30;99.90;;;;;;5073696;28;20228;-78
2023/09/04 03:40:31;;;;;;;8.02;5.53;;;11.20;99.90;;;;;;5073889;28;20633;-77
2023/09/04 03:42:57;;;;;;;7.68;5.55;;;11.30;99.90;;;;;;5073724;28;20209;-78
2023/09/04 03:45:23;;;;;;;5.75;5.15;;;11.20;99.90;;;;;;5073727;28;20638;-77
2023/09/04 03:47:49;;;;;;;6.10;5.50;;;11.20;99.90;;;;;;5073600;28;20177;-77
2023/09/04 03:50:15;;;;;;;9.75;5.63;;;11.20;99.90;;;;;;5073660;28;20272;-77
2023/09/04 03:52:43;;;;;;;6.13;5.53;;;11.10;99.90;;;;;;5074757;28;20224;-77
2023/09/04 03:55:10;;;;;;;8.10;5.70;;;11.20;99.90;;;;;;5073402;28;20182;-77
2023/09/04 03:57:36;;;;;;;8.35;5.78;;;11.10;99.90;;;;;;5073607;28;20552;-77
2023/09/04 04:00:14;;;;;;;7.07;6.28;;;11.20;99.90;;;;;;5073508;28;20174;-77
2023/09/04 04:02:41;;;;;;;11.70;6.32;;;11.10;99.90;;;;;;5073301;28;20682;-78
2023/09/04 04:05:07;;;;;;;7.63;6.28;;;11.10;99.90;;;;;;5074607;28;20304;-77
2023/09/04 04:07:32;;;;;;;7.80;6.25;;;11.10;99.90;;;;;;5074467;28;20181;-77
2023/09/04 04:09:58;;;;;;;8.98;6.38;;;11.10;99.90;;;;;;5074647;28;20209;-77
2023/09/04 04:12:24;;;;;;;8.75;7.00;;;11.20;99.90;;;;;;5075108;28;20186;-78
2023/09/04 04:14:54;;;;;;;7.93;6.60;;;11.30;99.90;;;;;;5073182;28;20547;-77
2023/09/04 04:17:20;;;;;;;12.13;6.43;;;11.20;99.90;;;;;;5074581;28;20165;-77
2023/09/04 04:19:47;;;;;;;8.32;7.00;;;11.20;99.90;;;;;;5073212;28;20178;-77
2023/09/04 04:22:13;;;;;;;8.68;7.10;;;11.10;99.90;;;;;;5073057;28;20264;-78
2023/09/04 04:24:39;;;;;;;10.15;7.07;;;11.10;99.90;;;;;;5074028;28;20608;-78
2023/09/04 04:27:04;;;;;;;8.98;7.10;;;11.10;99.90;;;;;;5072899;28;20181;-77
2023/09/04 04:29:30;;;;;;;8.25;7.22;;;11.10;99.90;;;;;;5074448;28;20259;-77
2023/09/04 04:31:56;;;;;;;7.82;6.60;;;11.10;99.90;;;;;;5072896;28;20170;-77
2023/09/04 04:34:23;;;;;;;7.65;6.60;;;11.10;99.90;;;;;;5072755;28;20673;-78
2023/09/04 04:36:55;;;;;;;10.15;6.38;;;11.10;99.90;;;;;;5072916;28;20200;-77
2023/09/04 04:39:21;;;;;;;8.05;6.53;;;11.00;99.90;;;;;;5074035;28;20229;-78
2023/09/04 04:41:48;;;;;;;9.10;6.88;;;11.00;99.90;;;;;;5074050;28;20188;-78
2023/09/04 04:44:14;;;;;;;9.13;6.80;;;10.90;99.90;;;;;;5072629;28;20288;-77
2023/09/04 04:46:40;;;;;;;8.57;7.13;;;10.90;99.90;;;;;;5074217;28;20196;-78
2023/09/04 04:49:06;;;;;;;10.15;6.30;;;10.80;99.90;;;;;;5073755;28;20566;-77
2023/09/04 04:51:32;;;;;;;8.73;6.93;;;10.80;99.90;;;;;;5074270;28;20170;-77
2023/09/04 04:53:58;;;;;;;8.13;6.15;;;10.80;99.90;;;;;;5072309;28;20617;-77
2023/09/04 04:56:24;;;;;;;8.38;6.53;;;10.80;99.90;;;;;;5074013;28;20185;-77
2023/09/04 04:58:50;;;;;;;9.23;5.88;;;10.80;99.90;;;;;;5072780;28;20182;-77
2023/09/04 05:01:15;;;;;;;8.32;6.15;;;10.80;99.90;;;;;;5072685;28;20189;-77
2023/09/04 05:03:41;;;;;;;7.65;6.47;;;10.80;99.90;;;;;;5072040;28;20204;-77
2023/09/04 05:06:08;;;;;;;7.63;6.05;;;10.80;99.90;;;;;;5072384;28;20186;-77
2023/09/04 05:08:34;;;;;;;7.47;5.68;;;10.70;99.90;;;;;;5072403;28;20212;-78
2023/09/04 05:11:02;;;;;;;6.35;5.75;;;10.60;99.90;;;;;;5073769;28;20173;-77
2023/09/04 05:13:29;;;;;;;7.65;5.72;;;10.60;99.90;;;;;;5073655;28;20662;-77
2023/09/04 05:15:54;;;;;;;6.20;5.60;;;10.60;99.90;;;;;;5072796;28;20174;-77
2023/09/04 05:18:20;;;;;;;9.57;5.63;;;10.70;99.90;;;;;;5072936;28;20669;-77
2023/09/04 05:20:46;;;;;;;7.30;5.82;;;10.70;99.90;;;;;;5074104;28;20181;-77
2023/09/04 05:23:12;;;;;;;9.40;6.00;;;10.80;99.90;;;;;;5073483;28;20204;-77
2023/09/04 05:25:46;;;;;;;13.10;7.07;;;10.80;99.90;;;;;;5072896;28;20260;-77
2023/09/04 05:28:12;;;;;;;7.53;5.80;;;10.80;99.90;;;;;;5072492;28;20284;-77
2023/09/04 05:30:37;;;;;;;6.60;5.90;;;10.90;99.90;;;;;;5072619;28;20299;-77
2023/09/04 05:33:04;;;;;;;7.25;5.68;;;10.80;99.90;;;;;;5072623;28;20248;-77
2023/09/04 05:35:29;;;;;;;8.77;6.07;;;10.90;99.90;;;;;;5072419;28;20315;-77
2023/09/04 05:37:56;;;;;;;9.63;6.38;;;10.90;99.90;;;;;;5072383;28;20182;-77
2023/09/04 05:40:22;;;;;;;6.32;5.65;;;10.90;99.90;;;;;;5072009;28;20181;-77
2023/09/04 05:42:47;;;;;;;7.47;6.28;;;11.00;99.90;;;;;;5073560;28;20193;-78
2023/09/04 05:45:13;;;;;;;9.13;6.35;;;11.00;99.90;;;;;;5072247;28;20181;-77
2023/09/04 05:47:39;;;;;;;9.70;6.25;;;11.10;99.90;;;;;;5073624;28;20223;-77
2023/09/04 05:50:05;;;;;;;7.70;6.40;;;11.20;99.90;;;;;;5072224;28;20292;-77
2023/09/04 05:52:31;;;;;;;8.15;6.28;;;11.30;99.90;;;;;;5072312;28;20202;-77
2023/09/04 05:54:56;;;;;;;6.82;5.90;;;11.30;99.90;;;;;;5071962;28;20181;-78
2023/09/04 05:57:22;;;;;;;7.53;5.88;;;11.40;99.90;;;;;;5072046;28;20178;-77
2023/09/04 05:59:48;;;;;;;10.07;7.05;;;11.40;99.90;;;;;;5071923;28;20184;-77
2023/09/04 06:02:13;;;;;;;8.52;6.28;;;11.50;99.90;;;;;;5072011;28;20174;-78
2023/09/04 06:04:39;;;;;;;8.05;6.38;;;11.60;99.90;;;;;;5073260;28;20247;-77
2023/09/04 06:07:06;;;;;;;7.50;6.32;;;11.70;99.90;;;;;;5072114;28;20281;-77
2023/09/04 06:09:32;;;;;;;8.82;6.95;;;11.80;99.90;;;;;;5077239;28;20197;-77
2023/09/04 06:11:58;;;;;;;11.25;7.90;;;12.00;99.90;;;;;;5072286;28;20273;-77
2023/09/04 06:14:24;;;;;;;11.32;8.30;;;12.10;99.90;;;;;;5071890;28;20289;-77
2023/09/04 06:16:50;;;;;;;8.77;6.82;;;12.20;99.90;;;;;;5077132;28;20170;-77
2023/09/04 06:19:15;;;;;;;9.20;7.45;;;12.30;99.90;;;;;;5075567;28;20179;-77
2023/09/04 06:21:41;;;;;;;13.45;9.18;;;12.40;99.90;;;;;;5076796;28;20174;-77
2023/09/04 06:24:07;;;;;;;9.82;8.65;;;12.50;99.90;;;;;;5075110;28;20576;-78
2023/09/04 06:26:32;;;;;;;12.02;9.05;;;12.60;99.90;;;;;;5075894;28;20181;-77
2023/09/04 06:28:58;;;;;;;10.40;8.70;;;12.70;99.90;;;;;;5075424;28;20208;-77
2023/09/04 06:31:24;;;;;;;9.40;8.18;;;12.70;99.90;;;;;;5075364;28;20675;-77
2023/09/04 06:33:50;;;;;;;9.63;8.10;;;12.80;99.90;;;;;;5074543;28;20201;-77
2023/09/04 06:36:16;;;;;;;9.75;7.72;;;13.00;99.90;;;;;;5076716;28;20532;-77
2023/09/04 06:38:42;;;;;;;10.77;8.50;;;13.10;99.90;;;;;;5076491;28;20183;-78
2023/09/04 06:41:07;;;;;;;10.52;7.75;;;13.20;99.90;;;;;;5076614;28;20788;-77
2023/09/04 06:43:33;;;;;;;9.60;6.75;;;13.30;99.90;;;;;;5074922;28;20198;-78
2023/09/04 06:46:01;;;;;;;8.63;7.10;;;13.40;99.90;;;;;;5076467;28;20170;-77
2023/09/04 06:48:27;;;;;;;8.77;7.55;;;13.50;99.90;;;;;;5075636;28;20559;-77
2023/09/04 06:50:53;;;;;;;11.02;8.23;;;13.60;99.90;;;;;;5074796;28;20181;-77
2023/09/04 06:53:19;;;;;;;8.70;7.75;;;13.70;99.90;;;;;;5074757;28;20202;-77
2023/09/04 06:55:47;;;;;;;12.93;8.45;;;13.80;99.90;;;;;;5074497;28;20215;-78
2023/09/04 06:58:14;;;;;;;9.52;8.10;;;13.80;99.90;;;;;;5074707;28;20185;-77
2023/09/04 07:00:40;;;;;;;8.70;6.80;;;13.90;99.90;;;;;;5075943;28;20252;-77
2023/09/04 07:03:06;;;;;;;10.18;8.07;;;14.00;99.90;;;;;;5075878;28;20229;-77
2023/09/04 07:05:32;;;;;;;10.85;8.40;;;14.00;99.90;;;;;;5074624;28;20178;-77
2023/09/04 07:07:57;;;;;;;11.02;8.32;;;14.10;99.90;;;;;;5074622;28;20247;-77
2023/09/04 07:10:23;;;;;;;10.27;8.73;;;14.20;99.90;;;;;;5074275;28;20177;-77
2023/09/04 07:12:51;;;;;;;9.82;8.43;;;14.30;99.90;;;;;;5074552;28;20205;-78
2023/09/04 07:15:17;;;;;;;9.73;7.88;;;14.40;99.90;;;;;;5074390;28;20289;-77
2023/09/04 07:17:43;;;;;;;10.35;7.97;;;14.50;99.90;;;;;;5074276;28;20217;-77
2023/09/04 07:20:10;;;;;;;11.35;8.20;;;14.60;99.90;;;;;;5074351;28;20173;-77
2023/09/04 07:22:37;;;;;;;10.55;7.38;;;14.70;99.90;;;;;;5074056;28;20224;-77
2023/09/04 07:25:04;;;;;;;10.73;7.93;;;14.80;99.90;;;;;;5074185;28;20178;-77
2023/09/04 07:27:30;;;;;;;11.10;7.47;;;14.90;99.90;;;;;;5075125;28;20181;-77
2023/09/04 07:29:56;;;;;;;10.32;7.25;;;15.10;99.90;;;;;;5074351;28;20610;-77
2023/09/04 07:32:25;;;;;;;8.20;6.82;;;15.20;99.90;;;;;;5074345;28;20205;-77
2023/09/04 07:34:56;;;;;;;8.23;7.15;;;15.30;99.90;;;;;;5073940;28;20169;-77
2023/09/04 07:37:26;;;;;;;8.23;6.80;;;15.40;99.90;;;;;;5074182;28;20173;-77
2023/09/04 07:39:53;;;;;;;7.30;6.55;;;15.60;99.90;;;;;;5073709;28;20178;-77
2023/09/04 07:42:19;;;;;;;11.48;7.50;;;15.70;99.90;;;;;;5073891;28;20185;-77
2023/09/04 07:44:45;;;;;;;11.52;6.78;;;15.80;99.90;;;;;;5075106;28;20174;-77
2023/09/04 07:47:11;;;;;;;10.93;6.40;;;16.00;99.90;;;;;;5075032;28;20668;-77
2023/09/04 07:49:36;;;;;;;9.48;6.30;;;16.10;99.90;;;;;;5073520;28;20202;-76
2023/09/04 07:52:02;;;;;;;8.80;6.00;;;16.20;99.90;;;;;;5073618;28;20180;-76
2023/09/04 07:54:28;;;;;;;7.95;5.57;;;16.30;99.90;;;;;;5073418;28;20197;-77
2023/09/04 07:56:54;;;;;;;7.95;5.68;;;16.40;99.90;;;;;;5073769;28;20284;-77
2023/09/04 07:59:19;;;;;;;8.32;5.95;;;16.60;99.90;;;;;;5073732;28;20205;-77
2023/09/04 08:01:45;;;;;;;9.32;6.50;;;16.70;99.90;;;;;;5073653;28;20185;-77
2023/09/04 08:04:14;;;;;;;7.10;5.75;;;16.80;99.90;;;;;;5075177;28;20193;-77
2023/09/04 08:06:39;;;;;;;11.00;6.22;;;16.90;99.90;;;;;;5073531;28;20262;-76
2023/09/04 08:09:05;;;;;;;6.47;5.63;;;17.00;99.90;;;;;;5073355;28;20213;-77
2023/09/04 08:11:31;;;;;;;7.78;5.57;;;17.10;99.90;;;;;;5073582;28;20264;-77
2023/09/04 08:13:57;;;;;;;7.68;5.35;;;17.20;99.90;;;;;;5073390;28;20200;-77
2023/09/04 08:16:23;;;;;;;6.22;5.32;;;17.30;99.90;;;;;;5075233;28;20169;-77
2023/09/04 08:18:49;;;;;;;6.13;4.93;;;17.40;99.90;;;;;;5073365;28;20189;-77
2023/09/04 08:21:15;;;;;;;8.95;5.15;;;17.50;99.90;;;;;;5073445;28;20277;-77
2023/09/04 08:23:40;;;;;;;7.55;5.53;;;17.60;99.90;;;;;;5073271;28;20213;-77
2023/09/04 08:26:06;;;;;;;10.00;5.80;;;17.80;99.90;;;;;;5073186;28;20227;-76
2023/09/04 08:28:33;;;;;;;9.95;5.22;;;17.90;99.90;;;;;;5074822;28;20190;-77
2023/09/04 08:30:58;;;;;;;6.78;6.05;;;18.00;99.90;;;;;;5073031;28;20196;-77
2023/09/04 08:33:24;;;;;;;6.63;5.00;;;18.30;99.90;;;;;;5073093;28;20685;-76
2023/09/04 08:35:50;;;;;;;6.10;4.65;;;18.40;99.90;;;;;;5073465;28;20303;-77
2023/09/04 08:38:16;;;;;;;6.78;4.50;;;18.60;99.90;;;;;;5072415;28;20180;-77
2023/09/04 08:40:42;;;;;;;10.55;4.68;;;18.70;99.90;;;;;;5073136;28;20173;-77
2023/09/04 08:43:08;;;;;;;9.05;4.90;;;19.00;99.90;;;;;;5074058;28;20197;-76
2023/09/04 08:45:36;;;;;;;7.05;4.57;;;19.10;99.90;;;;;;5073175;28;20623;-77
2023/09/04 08:48:03;;;;;;;6.45;5.07;;;19.20;99.90;;;;;;5063838;28;20221;-76
2023/09/04 08:50:30;;;;;;;6.90;4.28;;;19.50;99.90;;;;;;5053514;28;20236;-78
2023/09/04 08:52:56;;;;;;;6.45;4.28;;;19.60;99.90;;;;;;5053359;28;20202;-78
2023/09/04 08:55:22;;;;;;;5.65;4.10;;;19.80;99.90;;;;;;5054292;28;20171;-78
2023/09/04 08:57:48;;;;;;;4.97;4.13;;;20.00;99.90;;;;;;5054867;28;20249;-79
2023/09/04 09:00:16;;;;;;;5.28;4.10;;;20.10;99.90;;;;;;5053240;28;20182;-79
2023/09/04 09:02:45;;;;;;;6.35;3.92;;;20.30;99.90;;;;;;5053040;28;20201;-78
2023/09/04 09:05:17;;;;;;;4.30;3.90;;;20.50;99.90;;;;;;5053226;28;20186;-79
2023/09/04 09:07:44;;;;;;;7.05;4.25;;;20.70;99.90;;;;;;5052998;28;20193;-79
2023/09/04 09:10:15;;;;;;;5.50;3.72;;;20.70;99.90;;;;;;5052744;28;20209;-78
2023/09/04 09:12:40;;;;;;;8.05;4.40;;;20.90;99.90;;;;;;5052861;28;20198;-79
2023/09/04 09:15:06;;;;;;;5.00;3.70;;;21.00;99.90;;;;;;5053384;28;20181;-79
2023/09/04 09:17:32;;;;;;;6.38;3.50;;;21.20;99.90;;;;;;5060518;28;20237;-78
2023/09/04 09:19:58;;;;;;;5.15;3.72;;;21.20;99.90;;;;;;5074432;28;20173;-78
2023/09/04 09:22:24;;;;;;;7.30;3.80;;;21.30;99.90;;;;;;5073183;28;20178;-79
2023/09/04 09:24:50;;;;;;;5.43;3.40;;;21.50;99.90;;;;;;5072496;28;20638;-77
2023/09/04 09:27:24;;;;;;;4.55;3.45;;;21.60;99.90;;;;;;5074072;28;20196;-79
2023/09/04 09:29:51;;;;;;;5.32;3.13;;;21.60;99.90;;;;;;5073727;28;20212;-79
2023/09/04 09:32:18;;;;;;;3.85;3.20;;;21.70;99.90;;;;;;5073419;28;20227;-78
2023/09/04 09:34:52;;;;;;;4.95;3.25;;;21.70;99.90;;;;;;5074781;28;20204;-79
2023/09/04 09:37:23;;;;;;;3.85;3.17;;;21.90;99.90;;;;;;5072995;28;20579;-79
2023/09/04 09:39:49;;;;;;;3.65;3.10;;;22.00;99.90;;;;;;5072792;28;20213;-78
2023/09/04 09:42:15;;;;;;;5.05;3.40;;;22.10;99.90;;;;;;5074339;28;20185;-79
2023/09/04 09:44:41;;;;;;;6.78;3.65;;;22.20;99.90;;;;;;5072944;28;20185;-79
2023/09/04 09:47:10;;;;;;;6.53;2.97;;;22.30;99.90;;;;;;5073070;28;20181;-79
2023/09/04 09:49:36;;;;;;;5.35;3.20;;;22.40;99.90;;;;;;5073426;28;20197;-79
2023/09/04 09:52:07;;;;;;;4.55;3.17;;;22.40;1.00;;;;;;5076966;28;20173;-79
2023/09/04 09:54:37;;;;;;;5.35;2.95;;;22.40;99.90;;;;;;5076423;28;20231;-78
2023/09/04 09:57:09;;;;;;;3.47;3.03;;;22.50;99.90;;;;;;5078274;28;20178;-78
2023/09/04 09:59:36;;;;;;;4.40;2.85;;;22.60;35.00;;;;;;5077906;28;20177;-79
2023/09/04 10:02:03;;;;;;;4.35;2.60;;;22.60;99.90;;;;;;5077186;28;20579;-79
2023/09/04 10:04:34;;;;;;;4.05;3.33;;;22.70;99.90;;;;;;5076512;28;20204;-78
2023/09/04 10:07:02;;;;;;;5.22;3.15;;;22.70;99.90;;;;;;5076482;28;20292;-79
2023/09/04 10:09:36;;;;;;;4.35;3.30;;;22.70;99.90;;;;;;5076208;28;20848;-78
2023/09/04 10:12:20;;;;;;;3.72;2.90;;;22.80;91.40;;;;;;5076610;28;20256;-79
2023/09/04 10:14:49;;;;;;;3.35;2.75;;;22.80;91.50;;;;;;5076346;28;20188;-79
2023/09/04 10:17:18;;;;;;;4.00;2.95;;;22.70;57.30;;;;;;5077607;28;20166;-79
2023/09/04 10:19:46;;;;;;;6.28;2.88;;;22.80;1.00;;;;;;5076654;28;20205;-79
2023/09/04 10:22:24;;;;;;;5.13;2.67;;;22.90;1.00;;;;;;5076647;28;20265;-79
2023/09/04 10:24:56;;;;;;;5.07;2.80;;;23.00;1.00;;;;;;5077840;28;20561;-78
2023/09/04 10:27:27;;;;;;;3.78;2.50;;;23.00;1.00;;;;;;5076452;28;20173;-79
2023/09/04 10:30:05;;;;;;;6.07;2.80;;;23.10;1.00;;;;;;5076460;28;20205;-79
2023/09/04 10:32:31;;;;;;;3.17;2.45;;;23.10;1.00;;;;;;5077179;28;20190;-78
2023/09/04 10:34:57;;;;;;;3.00;2.70;;;23.20;99.90;;;;;;5076260;28;20689;-79
2023/09/04 10:37:26;;;;;;;4.75;2.70;;;23.20;1.00;;;;;;5076257;28;20178;-79
2023/09/04 10:39:53;;;;;;;3.25;2.58;;;23.20;99.90;;;;;;5076015;28;20177;-78
2023/09/04 10:42:20;;;;;;;4.85;2.78;;;23.20;11.90;;;;;;5076460;28;20538;-79
2023/09/04 10:44:53;;;;;;;5.10;2.70;;;23.20;93.90;;;;;;5077754;28;20177;-79
2023/09/04 10:47:20;;;;;;;4.15;2.50;;;23.20;1.00;;;;;;5076647;28;20177;-79
2023/09/04 10:49:48;;;;;;;4.55;2.72;;;23.30;1.00;;;;;;5076071;28;20255;-79
2023/09/04 10:52:14;;;;;;;4.25;2.47;;;23.30;1.00;;;;;;5076115;28;20637;-78
2023/09/04 10:54:41;;;;;;;3.55;2.65;;;23.50;1.00;;;;;;5076953;28;20170;-77
2023/09/04 10:57:11;;;;;;;5.25;2.55;;;23.60;99.90;;;;;;5075716;28;20181;-78
2023/09/04 10:59:55;;;;;;;3.15;2.30;;;23.60;1.00;;;;;;5075978;28;20216;-79
2023/09/04 11:02:32;;;;;;;4.50;2.50;;;23.70;99.90;;;;;;5075081;28;20181;-78
2023/09/04 11:05:00;;;;;;;3.55;2.40;;;23.90;1.00;;;;;;5075670;28;20599;-79
2023/09/04 11:07:36;;;;;;;3.15;2.22;;;24.10;1.00;;;;;;5076640;28;20212;-79
2023/09/04 11:10:29;;;;;;;5.20;2.10;;;24.20;99.90;;;;;;5075143;28;20206;-78
2023/09/04 11:12:55;;;;;;;4.72;2.28;;;24.40;22.40;;;;;;5075447;28;20198;-79
2023/09/04 11:15:22;;;;;;;3.55;2.30;;;24.50;1.00;;;;;;5075432;28;20209;-79
2023/09/04 11:17:51;;;;;;;3.70;2.35;;;24.50;1.00;;;;;;5075232;28;20174;-79
2023/09/04 11:20:22;;;;;;;4.07;2.35;;;24.70;1.00;;;;;;5075559;28;20174;-79
2023/09/04 11:22:48;;;;;;;3.80;2.25;;;24.80;1.00;;;;;;5075333;28;20205;-79
2023/09/04 11:25:17;;;;;;;4.75;2.20;;;24.90;9.60;;;;;;5076652;28;20177;-78
2023/09/04 11:27:44;;;;;;;4.50;2.17;;;25.10;1.00;;;;;;5075486;28;20174;-79
2023/09/04 11:30:11;;;;;;;3.22;2.28;;;25.20;91.40;;;;;;5075358;28;20197;-79
2023/09/04 11:32:38;;;;;;;2.50;1.88;;;25.20;99.90;;;;;;5076757;28;20190;-79
2023/09/04 11:35:05;;;;;;;3.22;2.33;;;25.30;99.90;;;;;;5076413;28;20523;-79
2023/09/04 11:37:32;;;;;;;2.42;2.22;;;25.50;73.10;;;;;;5076116;28;20178;-78
2023/09/04 11:40:00;;;;;;;2.95;2.40;;;25.70;1.00;;;;;;5075551;28;20209;-78
2023/09/04 11:42:29;;;;;;;2.88;2.15;;;25.70;1.00;;;;;;5076388;28;20202;-79
2023/09/04 11:44:55;;;;;;;5.05;2.80;;;25.80;6.50;;;;;;5076522;28;20169;-79
2023/09/04 11:47:22;;;;;;;2.90;2.38;;;26.00;99.90;;;;;;5074994;28;20219;-79
2023/09/04 11:49:49;;;;;;;2.70;2.20;;;26.00;99.90;;;;;;5074939;28;20256;-79
2023/09/04 11:52:19;;;;;;;3.40;2.10;;;26.20;99.90;;;;;;5075133;28;20185;-78
2023/09/04 11:54:45;;;;;;;5.13;2.33;;;26.40;99.90;;;;;;5075146;28;20173;-78
2023/09/04 11:57:11;;;;;;;3.13;2.38;;;26.50;99.90;;;;;;5075461;28;20196;-78
2023/09/04 11:59:38;;;;;;;3.03;2.22;;;26.30;1.00;;;;;;5076139;28;20548;-79
2023/09/04 12:02:05;;;;;;;3.33;2.60;;;26.40;1.00;;;;;;5075468;28;20200;-79
2023/09/04 12:04:32;;;;;;;2.67;2.20;;;26.60;72.90;;;;;;5076998;28;20177;-79
2023/09/04 12:07:07;;;;;;;4.05;2.58;;;26.80;1.00;;;;;;5075823;28;20204;-79
2023/09/04 12:09:36;;;;;;;3.47;2.63;;;27.10;99.90;;;;;;5075815;28;20228;-79
2023/09/04 12:12:03;;;;;;;3.95;2.42;;;27.10;99.90;;;;;;5075922;28;20174;-79
2023/09/04 12:14:29;;;;;;;3.85;2.50;;;27.20;1.00;;;;;;5075730;28;20740;-79
2023/09/04 12:16:55;;;;;;;3.17;2.45;;;27.20;99.90;;;;;;5076234;28;20642;-79
2023/09/04 12:19:25;;;;;;;2.90;2.42;;;27.40;99.90;;;;;;5076408;28;20190;-79
2023/09/04 12:21:51;;;;;;;2.70;2.20;;;27.70;1.00;;;;;;5076040;28;20781;-79
2023/09/04 12:24:18;;;;;;;4.00;2.40;;;28.00;1.00;;;;;;5076680;28;20229;-79
2023/09/04 12:26:48;;;;;;;2.80;2.47;;;28.00;99.90;;;;;;5078065;28;20239;-78
2023/09/04 12:29:13;;;;;;;3.83;2.60;;;28.00;99.90;;;;;;5078335;28;20198;-79
2023/09/04 12:31:42;;;;;;;2.13;2.00;;;28.30;99.90;;;;;;5084514;28;20699;-79
2023/09/04 12:34:08;;;;;;;3.63;2.50;;;28.60;99.90;;;;;;5087756;28;20197;-79
2023/09/04 12:36:34;;;;;;;3.83;2.83;;;28.40;99.90;;;;;;5077711;28;20710;-79
2023/09/04 12:39:00;;;;;;;4.75;2.60;;;28.50;1.00;;;;;;5076776;28;20269;-79
2023/09/04 12:41:27;;;;;;;3.67;2.30;;;28.10;1.00;;;;;;5076308;28;20174;-78
2023/09/04 12:43:53;;;;;;;2.75;2.40;;;28.20;1.00;;;;;;5076152;28;20206;-79
2023/09/04 12:46:19;;;;;;;3.25;2.42;;;28.40;1.00;;;;;;5076926;28;20173;-79